createdAt,value
2018-06-15T00:00:15.026Z,18.99
2018-06-15T00:02:48.605Z,18.79
2018-06-15T00:05:17.262Z,18.77
2018-06-15T00:07:45.840Z,18.81
2018-06-15T00:10:14.466Z,18.74
2018-06-15T00:12:43.057Z,18.52
2018-06-15T00:15:11.712Z,18.47
2018-06-15T00:17:40.322Z,18.34
2018-06-15T00:20:08.959Z,18.37
2018-06-15T00:22:37.563Z,18.40
2018-06-15T00:25:06.254Z,18.36
2018-06-15T00:27:34.846Z,18.37
2018-06-15T00:30:05.028Z,18.42
2018-06-15T00:32:33.637Z,18.56
2018-06-15T00:35:02.305Z,18.68
2018-06-15T00:37:30.927Z,18.75
2018-06-15T00:39:59.514Z,18.87
2018-06-15T00:42:28.121Z,18.93
2018-06-15T00:44:56.757Z,18.91
2018-06-15T00:47:25.360Z,19.01
2018-06-15T00:49:53.986Z,18.84
2018-06-15T00:52:22.574Z,18.59
2018-06-15T00:54:51.143Z,18.22
2018-06-15T00:57:30.785Z,17.76
2018-06-15T00:59:59.400Z,17.37
2018-06-15T01:02:27.970Z,17.17
2018-06-15T01:04:56.551Z,17.14
2018-06-15T01:07:25.149Z,17.00
2018-06-15T01:09:53.759Z,16.91
2018-06-15T01:12:22.353Z,16.97
2018-06-15T01:14:50.923Z,17.06
2018-06-15T01:17:19.498Z,17.07
2018-06-15T01:19:48.110Z,17.09
2018-06-15T01:22:16.671Z,17.18
2018-06-15T01:24:45.248Z,17.13
2018-06-15T01:27:13.850Z,17.21
2018-06-15T01:29:42.414Z,17.25
2018-06-15T01:32:11.840Z,17.43
2018-06-15T01:34:40.448Z,17.55
2018-06-15T01:37:09.078Z,17.69
2018-06-15T01:39:37.657Z,17.61
2018-06-15T01:42:06.319Z,17.60
2018-06-15T01:44:34.902Z,17.83
2018-06-15T01:47:03.472Z,17.81
2018-06-15T01:49:32.056Z,17.86
2018-06-15T01:52:00.682Z,17.76
2018-06-15T01:54:29.255Z,17.55
2018-06-15T01:56:57.886Z,17.59
2018-06-15T01:59:26.471Z,17.78
2018-06-15T02:01:55.024Z,17.82
2018-06-15T02:04:23.629Z,17.88
2018-06-15T02:06:52.195Z,18.02
2018-06-15T02:09:20.830Z,18.14
2018-06-15T02:11:49.426Z,18.01
2018-06-15T02:14:17.991Z,18.02
2018-06-15T02:16:46.566Z,18.07
2018-06-15T02:19:15.162Z,18.30
2018-06-15T02:21:43.856Z,18.22
2018-06-15T02:24:12.449Z,18.42
2018-06-15T02:26:41.053Z,18.44
2018-06-15T02:29:09.610Z,18.41
2018-06-15T02:31:38.287Z,18.53
2018-06-15T02:34:06.897Z,18.63
2018-06-15T02:36:35.542Z,18.82
2018-06-15T02:39:04.592Z,18.68
2018-06-15T02:41:33.179Z,18.55
2018-06-15T02:44:01.768Z,18.55
2018-06-15T02:46:30.377Z,18.63
2018-06-15T02:48:58.967Z,18.26
2018-06-15T02:51:27.591Z,17.79
2018-06-15T02:53:56.201Z,17.85
2018-06-15T02:56:24.942Z,17.92
2018-06-15T02:58:53.559Z,17.79
2018-06-15T03:01:22.130Z,17.82
2018-06-15T03:03:50.733Z,17.50
2018-06-15T03:06:19.332Z,17.36
2018-06-15T03:08:47.959Z,17.31
2018-06-15T03:11:16.664Z,17.49
2018-06-15T03:13:45.276Z,17.63
2018-06-15T03:16:13.906Z,17.61
2018-06-15T03:18:42.533Z,17.71
2018-06-15T03:21:11.126Z,17.64
2018-06-15T03:23:39.703Z,17.42
2018-06-15T03:26:08.283Z,17.36
2018-06-15T03:28:36.902Z,17.48
2018-06-15T03:31:05.494Z,17.53
2018-06-15T03:33:34.072Z,17.55
2018-06-15T03:36:02.752Z,17.61
2018-06-15T03:38:31.330Z,17.46
2018-06-15T03:40:59.942Z,17.27
2018-06-15T03:43:28.662Z,17.26
2018-06-15T03:45:57.349Z,17.27
2018-06-15T03:48:26.042Z,17.35
2018-06-15T03:50:54.626Z,17.22
2018-06-15T03:53:23.215Z,17.19
2018-06-15T03:55:51.852Z,17.23
2018-06-15T03:58:20.410Z,17.22
2018-06-15T04:00:49.111Z,17.30
2018-06-15T04:03:18.235Z,17.32
2018-06-15T04:06:01.570Z,17.54
2018-06-15T04:08:30.112Z,17.72
2018-06-15T04:10:58.746Z,17.84
2018-06-15T04:13:27.323Z,17.90
2018-06-15T04:15:55.903Z,18.08
2018-06-15T04:18:24.486Z,18.03
2018-06-15T04:20:53.102Z,18.15
2018-06-15T04:23:21.715Z,18.38
2018-06-15T04:25:50.358Z,18.51
2018-06-15T04:28:19.303Z,18.51
2018-06-15T04:30:47.935Z,18.55
2018-06-15T04:33:16.547Z,18.54
2018-06-15T04:35:45.162Z,18.50
2018-06-15T04:38:14.052Z,18.58
2018-06-15T04:40:42.795Z,18.60
2018-06-15T04:43:11.414Z,18.62
2018-06-15T04:45:40.082Z,18.61
2018-06-15T04:48:08.852Z,18.65
2018-06-15T04:50:38.343Z,18.78
2018-06-15T04:53:06.946Z,18.84
2018-06-15T04:55:35.551Z,18.69
2018-06-15T04:58:04.142Z,18.57
2018-06-15T05:00:32.740Z,18.82
2018-06-15T05:03:01.324Z,18.96
2018-06-15T05:05:29.930Z,18.97
2018-06-15T05:07:58.527Z,19.17
2018-06-15T05:10:27.196Z,19.34
2018-06-15T05:12:55.803Z,19.25
2018-06-15T05:15:24.418Z,19.45
2018-06-15T05:17:53.071Z,19.82
2018-06-15T05:20:21.639Z,19.91
2018-06-15T05:22:50.236Z,20.29
2018-06-15T05:25:18.864Z,20.68
2018-06-15T05:27:47.528Z,21.12
2018-06-15T05:30:16.196Z,21.44
2018-06-15T05:32:44.881Z,21.78
2018-06-15T05:35:13.486Z,22.12
2018-06-15T05:37:42.074Z,22.15
2018-06-15T05:40:10.717Z,21.98
2018-06-15T05:42:39.325Z,21.52
2018-06-15T05:45:08.043Z,21.18
2018-06-15T05:47:36.651Z,21.28
2018-06-15T05:50:05.278Z,21.80
2018-06-15T05:52:33.860Z,22.37
2018-06-15T05:55:02.410Z,22.96
2018-06-15T05:57:31.026Z,23.80
2018-06-15T05:59:59.594Z,24.40
2018-06-15T06:02:28.173Z,23.93
2018-06-15T06:04:56.813Z,24.31
2018-06-15T06:07:26.277Z,24.36
2018-06-15T06:09:54.941Z,24.49
2018-06-15T06:12:23.548Z,23.51
2018-06-15T06:14:52.221Z,23.45
2018-06-15T06:17:20.823Z,22.92
2018-06-15T06:19:49.511Z,23.06
2018-06-15T06:22:18.154Z,24.24
2018-06-15T06:24:46.794Z,24.64
2018-06-15T06:27:15.375Z,25.19
2018-06-15T06:29:43.959Z,25.39
2018-06-15T06:32:12.548Z,25.95
2018-06-15T06:34:41.191Z,24.99
2018-06-15T06:37:09.807Z,24.00
2018-06-15T06:39:38.478Z,23.43
2018-06-15T06:42:07.136Z,22.81
2018-06-15T06:44:35.747Z,23.02
2018-06-15T06:47:04.322Z,23.61
2018-06-15T06:49:32.931Z,23.64
2018-06-15T06:52:01.506Z,23.47
2018-06-15T06:54:30.194Z,23.72
2018-06-15T06:56:58.784Z,24.28
2018-06-15T06:59:27.377Z,25.21
2018-06-15T07:01:56.052Z,24.88
2018-06-15T07:04:24.610Z,25.00
2018-06-15T07:06:53.207Z,24.40
2018-06-15T07:09:21.903Z,25.36
2018-06-15T07:11:50.518Z,26.29
2018-06-15T07:14:19.149Z,26.67
2018-06-15T07:16:47.834Z,27.49
2018-06-15T07:19:16.432Z,28.03
2018-06-15T07:21:45.050Z,27.75
2018-06-15T07:24:13.644Z,27.78
2018-06-15T07:26:42.207Z,28.69
2018-06-15T07:29:10.758Z,27.81
2018-06-15T07:31:39.308Z,27.19
2018-06-15T07:34:07.863Z,26.38
2018-06-15T07:36:36.433Z,25.23
2018-06-15T07:39:06.861Z,25.48
2018-06-15T07:41:35.508Z,26.44
2018-06-15T07:44:04.236Z,28.03
2018-06-15T07:46:32.819Z,27.97
2018-06-15T07:49:01.397Z,27.93
2018-06-15T07:51:29.964Z,27.70
2018-06-15T07:53:58.580Z,26.81
2018-06-15T07:56:27.148Z,26.47
2018-06-15T07:58:55.830Z,26.39
2018-06-15T08:01:24.402Z,27.17
2018-06-15T08:03:58.003Z,28.34
2018-06-15T08:06:26.575Z,28.77
2018-06-15T08:08:55.353Z,27.56
2018-06-15T08:11:23.947Z,27.43
2018-06-15T08:13:52.534Z,28.04
2018-06-15T08:16:21.136Z,28.47
2018-06-15T08:18:49.688Z,28.32
2018-06-15T08:21:18.319Z,26.75
2018-06-15T08:23:46.978Z,27.40
2018-06-15T08:26:15.535Z,28.18
2018-06-15T08:28:44.174Z,28.48
2018-06-15T08:31:12.774Z,28.40
2018-06-15T08:33:41.530Z,27.93
2018-06-15T08:36:10.094Z,27.83
2018-06-15T08:38:38.790Z,28.66
2018-06-15T08:41:07.648Z,28.16
2018-06-15T08:43:36.208Z,27.62
2018-06-15T08:46:04.820Z,28.42
2018-06-15T08:48:33.413Z,29.04
2018-06-15T08:51:02.046Z,29.29
2018-06-15T08:53:30.659Z,28.71
2018-06-15T08:55:59.218Z,28.51
2018-06-15T08:58:27.783Z,28.80
2018-06-15T09:00:56.351Z,27.79
2018-06-15T09:03:24.944Z,27.22
2018-06-15T09:05:53.560Z,28.14
2018-06-15T09:08:22.214Z,28.29
2018-06-15T09:10:51.930Z,28.13
2018-06-15T09:13:20.476Z,28.95
2018-06-15T09:15:49.040Z,28.76
2018-06-15T09:18:18.662Z,28.10
2018-06-15T09:20:47.365Z,29.21
2018-06-15T09:23:16.020Z,29.10
2018-06-15T09:25:44.631Z,27.57
2018-06-15T09:28:13.170Z,27.50
2018-06-15T09:30:41.765Z,28.09
2018-06-15T09:33:10.351Z,28.20
2018-06-15T09:35:39.495Z,28.92
2018-06-15T09:38:08.102Z,29.12
2018-06-15T09:40:36.702Z,28.64
2018-06-15T09:43:05.294Z,28.71
2018-06-15T09:45:34.040Z,30.20
2018-06-15T09:48:02.692Z,30.34
2018-06-15T09:50:31.250Z,29.48
2018-06-15T09:52:59.875Z,29.94
2018-06-15T09:55:28.975Z,29.15
2018-06-15T09:57:57.616Z,30.44
2018-06-15T10:00:31.397Z,30.59
2018-06-15T10:02:59.986Z,30.49
2018-06-15T10:05:28.640Z,30.48
2018-06-15T10:07:57.237Z,30.53
2018-06-15T10:10:25.806Z,29.23
2018-06-15T10:12:54.394Z,28.45
2018-06-15T10:15:22.933Z,26.78
2018-06-15T10:17:51.627Z,25.78
2018-06-15T10:20:20.307Z,25.52
2018-06-15T10:22:48.900Z,25.24
2018-06-15T10:25:17.554Z,25.20
2018-06-15T10:27:46.213Z,25.12
2018-06-15T10:30:14.807Z,25.55
2018-06-15T10:32:43.683Z,25.54
2018-06-15T10:35:12.323Z,26.58
2018-06-15T10:37:40.893Z,27.72
2018-06-15T10:40:09.544Z,28.22
2018-06-15T10:42:38.114Z,28.32
2018-06-15T10:45:06.779Z,27.46
2018-06-15T10:47:35.353Z,27.74
2018-06-15T10:50:04.040Z,28.04
2018-06-15T10:52:32.666Z,27.90
2018-06-15T10:55:01.349Z,27.66
2018-06-15T10:57:29.950Z,27.85
2018-06-15T10:59:58.523Z,27.95
2018-06-15T11:02:27.248Z,27.48
2018-06-15T11:04:55.834Z,27.47
2018-06-15T11:07:24.468Z,27.07
2018-06-15T11:09:53.128Z,26.49
2018-06-15T11:12:21.745Z,25.78
2018-06-15T11:14:50.492Z,25.46
2018-06-15T11:17:19.082Z,25.29
2018-06-15T11:19:47.727Z,25.00
2018-06-15T11:22:16.274Z,24.41
2018-06-15T11:24:44.899Z,24.17
2018-06-15T11:27:13.517Z,24.08
2018-06-15T11:29:42.130Z,23.90
2018-06-15T11:32:10.821Z,23.76
2018-06-15T11:34:39.445Z,23.68
2018-06-15T11:37:08.140Z,23.38
2018-06-15T11:39:36.805Z,22.93
2018-06-15T11:42:05.486Z,22.87
2018-06-15T11:44:34.147Z,22.71
2018-06-15T11:47:02.736Z,22.68
2018-06-15T11:49:31.356Z,22.64
2018-06-15T11:52:00.058Z,22.45
2018-06-15T11:54:28.720Z,22.34
2018-06-15T11:56:57.319Z,22.30
2018-06-15T11:59:26.171Z,22.27
2018-06-15T12:01:54.782Z,22.25
2018-06-15T12:04:23.334Z,22.48
2018-06-15T12:06:51.908Z,22.83
2018-06-15T12:09:20.497Z,22.87
2018-06-15T12:11:49.084Z,22.67
2018-06-15T12:14:17.710Z,22.74
2018-06-15T12:16:46.298Z,22.95
2018-06-15T12:19:14.998Z,23.14
2018-06-15T12:21:43.542Z,23.13
2018-06-15T12:24:12.103Z,23.00
2018-06-15T12:26:40.705Z,22.91
2018-06-15T12:29:09.362Z,22.61
2018-06-15T12:31:38.576Z,22.64
2018-06-15T12:34:07.280Z,22.60
2018-06-15T12:36:35.889Z,22.73
2018-06-15T12:39:06.511Z,22.92
2018-06-15T12:41:35.119Z,22.80
2018-06-15T12:44:03.746Z,23.18
2018-06-15T12:46:32.339Z,23.61
2018-06-15T12:49:00.927Z,23.58
2018-06-15T12:51:29.507Z,23.70
2018-06-15T12:53:58.162Z,23.47
2018-06-15T12:56:27.038Z,23.75
2018-06-15T12:58:55.613Z,24.00
2018-06-15T13:01:24.173Z,24.14
2018-06-15T13:03:52.792Z,23.95
2018-06-15T13:06:21.337Z,24.05
2018-06-15T13:08:49.931Z,24.08
2018-06-15T13:11:18.595Z,24.29
2018-06-15T13:13:47.182Z,23.38
2018-06-15T13:16:15.787Z,24.27
2018-06-15T13:18:44.363Z,24.27
2018-06-15T13:21:12.933Z,24.51
2018-06-15T13:23:41.582Z,24.37
2018-06-15T13:26:10.132Z,24.26
2018-06-15T13:28:38.776Z,24.02
2018-06-15T13:31:07.550Z,23.85
2018-06-15T13:33:36.097Z,23.73
2018-06-15T13:36:06.039Z,23.61
2018-06-15T13:38:34.620Z,23.45
2018-06-15T13:41:03.325Z,23.43
2018-06-15T13:43:31.891Z,23.55
2018-06-15T13:46:00.485Z,23.41
2018-06-15T13:48:29.155Z,23.35
2018-06-15T13:50:57.833Z,23.32
2018-06-15T13:53:26.495Z,23.26
2018-06-15T13:55:55.043Z,23.08
2018-06-15T13:58:23.632Z,22.89
2018-06-15T14:00:52.246Z,22.72
2018-06-15T14:03:21.088Z,22.67
2018-06-15T14:05:49.751Z,22.43
2018-06-15T14:08:18.358Z,22.11
2018-06-15T14:10:46.950Z,22.41
2018-06-15T14:13:15.771Z,22.33
2018-06-15T14:15:44.328Z,22.33
2018-06-15T14:18:12.882Z,22.31
2018-06-15T14:20:41.550Z,22.34
2018-06-15T14:23:10.553Z,22.42
2018-06-15T14:25:39.140Z,22.28
2018-06-15T14:28:08.421Z,22.27
2018-06-15T14:30:37.073Z,22.27
2018-06-15T14:33:05.686Z,22.27
2018-06-15T14:35:34.326Z,21.99
2018-06-15T14:38:02.891Z,21.44
2018-06-15T14:40:31.825Z,21.03
2018-06-15T14:43:00.376Z,20.59
2018-06-15T14:45:28.919Z,20.39
2018-06-15T14:47:57.495Z,20.28
2018-06-15T14:50:26.035Z,20.25
2018-06-15T14:52:54.688Z,20.22
2018-06-15T14:55:23.295Z,20.11
2018-06-15T14:57:51.866Z,20.03
2018-06-15T15:00:20.463Z,19.84
2018-06-15T15:02:49.119Z,19.74
2018-06-15T15:05:17.775Z,19.34
2018-06-15T15:07:46.455Z,19.34
2018-06-15T15:10:15.057Z,19.41
2018-06-15T15:12:43.623Z,19.32
2018-06-15T15:15:12.216Z,19.33
2018-06-15T15:17:40.820Z,19.37
2018-06-15T15:20:09.432Z,19.21
2018-06-15T15:22:38.083Z,19.10
2018-06-15T15:25:06.722Z,19.08
2018-06-15T15:27:35.403Z,19.11
2018-06-15T15:30:06.123Z,19.01
2018-06-15T15:32:34.690Z,18.88
2018-06-15T15:35:03.677Z,18.88
2018-06-15T15:37:32.251Z,18.84
2018-06-15T15:40:00.853Z,18.84
2018-06-15T15:42:29.433Z,18.91
2018-06-15T15:44:58.112Z,19.07
2018-06-15T15:47:26.701Z,19.13
2018-06-15T15:49:55.310Z,19.15
2018-06-15T15:52:24.022Z,19.12
2018-06-15T15:54:52.631Z,19.18
2018-06-15T15:57:21.476Z,19.25
2018-06-15T15:59:50.082Z,19.26
2018-06-15T16:02:18.733Z,19.37
2018-06-15T16:04:47.636Z,19.38
2018-06-15T16:07:17.288Z,19.42
2018-06-15T16:09:46.152Z,19.34
2018-06-15T16:12:14.772Z,19.33
2018-06-15T16:14:43.393Z,19.36
2018-06-15T16:17:12.506Z,19.35
2018-06-15T16:19:41.459Z,18.01
2018-06-15T16:22:10.934Z,18.85
2018-06-15T16:24:39.540Z,18.72
2018-06-15T16:27:08.336Z,18.83
2018-06-15T16:29:36.926Z,18.88
2018-06-15T16:32:05.605Z,19.02
2018-06-15T16:34:34.261Z,19.04
2018-06-15T16:37:02.911Z,18.89
2018-06-15T16:39:31.463Z,18.83
2018-06-15T16:42:00.092Z,18.81
2018-06-15T16:44:28.714Z,18.82
2018-06-15T16:46:57.335Z,18.70
2018-06-15T16:49:25.936Z,18.47
2018-06-15T16:51:54.991Z,18.35
2018-06-15T16:54:23.609Z,17.98
2018-06-15T16:56:52.469Z,17.76
2018-06-15T16:59:21.087Z,17.55
2018-06-15T17:01:49.679Z,17.46
2018-06-15T17:04:18.292Z,17.39
2018-06-15T17:06:46.958Z,17.30
2018-06-15T17:09:15.547Z,17.18
2018-06-15T17:11:44.138Z,17.23
2018-06-15T17:14:12.721Z,17.23
2018-06-15T17:16:41.315Z,17.21
2018-06-15T17:19:09.970Z,17.22
2018-06-15T17:21:38.582Z,17.24
2018-06-15T17:24:07.204Z,17.22
2018-06-15T17:26:35.808Z,17.16
2018-06-15T17:29:04.806Z,17.13
2018-06-15T17:31:33.436Z,17.15
2018-06-15T17:34:02.039Z,17.11
2018-06-15T17:36:30.760Z,17.06
2018-06-15T17:38:59.327Z,17.00
2018-06-15T17:41:28.201Z,17.00
2018-06-15T17:43:56.802Z,16.99
2018-06-15T17:46:25.737Z,16.93
2018-06-15T17:48:54.535Z,16.90
2018-06-15T17:51:23.156Z,16.77
2018-06-15T17:53:52.194Z,16.71
2018-06-15T17:56:20.860Z,16.84
2018-06-15T17:58:49.740Z,16.84
2018-06-15T18:01:18.360Z,16.73
2018-06-15T18:03:47.141Z,16.71
2018-06-15T18:06:15.875Z,16.63
2018-06-15T18:08:44.458Z,16.64
2018-06-15T18:11:13.426Z,16.63
2018-06-15T18:13:42.080Z,16.66
2018-06-15T18:16:10.746Z,16.75
2018-06-15T18:18:39.315Z,16.78
2018-06-15T18:21:08.087Z,16.75
2018-06-15T18:23:36.714Z,16.76
2018-06-15T18:26:05.406Z,16.73
2018-06-15T18:28:34.046Z,16.67
2018-06-15T18:31:02.643Z,16.76
2018-06-15T18:33:31.587Z,16.81
2018-06-15T18:36:00.289Z,16.78
2018-06-15T18:38:29.250Z,16.84
2018-06-15T18:40:57.861Z,16.74
2018-06-15T18:43:26.662Z,16.77
2018-06-15T18:45:55.716Z,16.75
2018-06-15T18:48:25.974Z,16.74
2018-06-15T18:50:54.789Z,16.63
2018-06-15T18:53:23.452Z,16.43
2018-06-15T18:55:52.043Z,16.21
2018-06-15T18:58:20.983Z,16.16
2018-06-15T19:00:49.624Z,16.15
2018-06-15T19:03:18.258Z,16.22
2018-06-15T19:05:46.914Z,16.28
2018-06-15T19:08:15.503Z,16.31
2018-06-15T19:10:44.447Z,16.35
2018-06-15T19:13:13.077Z,16.27
2018-06-15T19:15:41.856Z,16.20
2018-06-15T19:18:10.450Z,16.22
2018-06-15T19:20:39.178Z,16.20
2018-06-15T19:23:07.904Z,16.19
2018-06-15T19:25:36.833Z,16.20
2018-06-15T19:28:05.643Z,16.18
2018-06-15T19:30:34.278Z,16.22
2018-06-15T19:33:02.900Z,16.28
2018-06-15T19:35:31.754Z,16.33
2018-06-15T19:38:00.540Z,16.36
2018-06-15T19:40:29.288Z,16.42
2018-06-15T19:42:58.072Z,16.42
2018-06-15T19:45:27.111Z,16.42
2018-06-15T19:47:55.891Z,16.35
2018-06-15T19:50:24.495Z,16.36
2018-06-15T19:52:53.166Z,16.34
2018-06-15T19:55:21.834Z,16.45
2018-06-15T19:57:50.415Z,16.88
2018-06-15T20:00:20.259Z,17.01
2018-06-15T20:02:48.926Z,16.99
2018-06-15T20:05:17.535Z,16.93
2018-06-15T20:07:46.126Z,16.97
2018-06-15T20:10:14.726Z,16.87
2018-06-15T20:12:43.332Z,16.85
2018-06-15T20:15:11.939Z,17.01
2018-06-15T20:17:40.528Z,16.93
2018-06-15T20:20:09.182Z,16.90
2018-06-15T20:22:38.156Z,16.95
2018-06-15T20:25:07.521Z,16.99
2018-06-15T20:27:36.249Z,16.88
2018-06-15T20:30:06.475Z,17.02
2018-06-15T20:32:35.050Z,16.99
2018-06-15T20:35:03.672Z,17.06
2018-06-15T20:37:32.312Z,17.09
2018-06-15T20:40:00.947Z,17.01
2018-06-15T20:42:29.570Z,17.13
2018-06-15T20:44:58.177Z,17.18
2018-06-15T20:47:26.797Z,17.15
2018-06-15T20:49:55.552Z,17.19
2018-06-15T20:52:24.155Z,17.06
2018-06-15T20:54:53.122Z,16.91
2018-06-15T20:57:21.750Z,16.89
2018-06-15T20:59:50.396Z,16.91
2018-06-15T21:02:19.184Z,16.97
2018-06-15T21:04:47.783Z,17.14
2018-06-15T21:07:16.408Z,17.25
2018-06-15T21:09:45.047Z,17.24
2018-06-15T21:12:13.655Z,17.28
2018-06-15T21:14:42.680Z,17.20
2018-06-15T21:17:11.330Z,17.14
2018-06-15T21:19:39.961Z,17.06
2018-06-15T21:22:08.539Z,17.09
2018-06-15T21:24:37.112Z,17.05
2018-06-15T21:27:05.793Z,17.05
2018-06-15T21:29:34.384Z,16.87
2018-06-15T21:32:02.989Z,16.97
2018-06-15T21:34:31.658Z,16.99
2018-06-15T21:37:00.247Z,17.02
2018-06-15T21:39:29.822Z,16.93
2018-06-15T21:41:58.439Z,16.95
2018-06-15T21:44:26.994Z,16.97
2018-06-15T21:46:55.607Z,17.13
2018-06-15T21:49:24.146Z,17.16
2018-06-15T21:51:52.741Z,17.22
2018-06-15T21:54:21.323Z,17.26
2018-06-15T21:56:49.986Z,17.14
2018-06-15T21:59:18.650Z,17.03
2018-06-15T22:01:47.323Z,17.06
2018-06-15T22:04:15.893Z,17.10
2018-06-15T22:06:44.455Z,17.14
2018-06-15T22:09:13.056Z,17.34
2018-06-15T22:11:41.639Z,17.29
2018-06-15T22:14:10.206Z,17.23
2018-06-15T22:16:44.019Z,17.08
2018-06-15T22:19:12.624Z,17.32
2018-06-15T22:21:41.208Z,17.44
2018-06-15T22:24:09.810Z,17.12
2018-06-15T22:26:38.412Z,17.15
2018-06-15T22:29:07.050Z,17.16
2018-06-15T22:31:35.719Z,17.24
2018-06-15T22:34:04.329Z,17.37
2018-06-15T22:36:32.931Z,17.49
2018-06-15T22:39:01.528Z,17.41
2018-06-15T22:41:30.150Z,17.12
2018-06-15T22:43:58.779Z,17.05
2018-06-15T22:46:27.328Z,17.13
2018-06-15T22:48:56.026Z,17.01
2018-06-15T22:51:24.602Z,17.08
2018-06-15T22:53:53.166Z,17.23
2018-06-15T22:56:21.755Z,17.31
2018-06-15T22:58:50.377Z,17.25
2018-06-15T23:01:19.040Z,17.32
2018-06-15T23:03:47.711Z,17.52
2018-06-15T23:06:16.375Z,17.40
2018-06-15T23:08:44.926Z,17.18
2018-06-15T23:11:13.551Z,17.03
2018-06-15T23:13:42.138Z,16.91
2018-06-15T23:16:10.743Z,16.79
2018-06-15T23:18:39.299Z,16.90
2018-06-15T23:21:08.004Z,16.82
2018-06-15T23:23:36.595Z,16.87
2018-06-15T23:26:05.215Z,16.78
2018-06-15T23:28:33.770Z,16.89
2018-06-15T23:31:02.357Z,16.81
2018-06-15T23:33:30.931Z,16.89
2018-06-15T23:35:59.502Z,16.73
2018-06-15T23:38:28.137Z,16.74
2018-06-15T23:40:56.762Z,16.66
2018-06-15T23:43:25.363Z,16.52
2018-06-15T23:45:54.286Z,16.61
2018-06-15T23:48:22.867Z,16.67
2018-06-15T23:50:51.475Z,16.69
2018-06-15T23:53:20.123Z,16.48
2018-06-15T23:55:48.700Z,16.54
2018-06-15T23:58:17.327Z,16.65
